createdAt,value
2022-08-17T00:01:51.768Z,0.40
2022-08-17T00:04:20.394Z,0.50
2022-08-17T00:06:49.298Z,0.73
2022-08-17T00:09:19.070Z,0.97
2022-08-17T00:12:42.216Z,0.50
2022-08-17T00:14:36.124Z,0.35
2022-08-17T00:17:04.747Z,0.40
2022-08-17T00:19:32.991Z,0.60
2022-08-17T00:22:35.265Z,0.60
2022-08-17T00:24:49.954Z,0.85
2022-08-17T00:27:17.369Z,0.53
2022-08-17T00:29:46.072Z,0.40
2022-08-17T00:33:11.987Z,0.47
2022-08-17T00:35:04.797Z,0.40
2022-08-17T00:37:31.704Z,0.30
2022-08-17T00:39:59.580Z,0.50
2022-08-17T00:42:30.969Z,0.50
2022-08-17T00:44:58.705Z,0.40
2022-08-17T00:47:25.881Z,0.75
2022-08-17T00:49:53.106Z,0.30
2022-08-17T00:52:23.243Z,0.40
2022-08-17T00:54:52.388Z,0.40
2022-08-17T00:57:23.492Z,0.50
2022-08-17T01:00:02.430Z,0.50
2022-08-17T01:02:42.190Z,1.42
2022-08-17T01:05:21.297Z,0.37
2022-08-17T01:07:50.986Z,0.93
2022-08-17T01:11:00.476Z,0.30
2022-08-17T01:13:07.957Z,0.40
2022-08-17T01:15:37.580Z,0.40
2022-08-17T01:18:06.041Z,0.82
2022-08-17T01:20:41.878Z,0.50
2022-08-17T01:23:20.460Z,0.30
2022-08-17T01:25:53.630Z,0.50
2022-08-17T01:28:53.122Z,0.40
2022-08-17T01:31:09.237Z,0.70
2022-08-17T01:33:36.436Z,0.40
2022-08-17T01:36:06.286Z,0.70
2022-08-17T01:38:37.553Z,0.60
2022-08-17T01:41:10.661Z,0.45
2022-08-17T01:43:45.532Z,0.30
2022-08-17T01:46:17.150Z,0.40
2022-08-17T01:48:47.378Z,0.40
2022-08-17T01:51:15.714Z,0.50
2022-08-17T01:53:47.346Z,0.40
2022-08-17T01:56:17.635Z,0.35
2022-08-17T01:58:44.590Z,0.37
2022-08-17T02:01:14.856Z,0.40
2022-08-17T02:03:42.388Z,0.60
2022-08-17T02:06:27.792Z,0.40
2022-08-17T02:09:02.448Z,0.50
2022-08-17T02:11:33.163Z,0.50
2022-08-17T02:14:03.275Z,0.45
2022-08-17T02:16:37.631Z,0.30
2022-08-17T02:19:11.812Z,0.45
2022-08-17T02:21:39.538Z,0.50
2022-08-17T02:24:12.954Z,0.32
2022-08-17T02:26:39.917Z,0.60
2022-08-17T02:29:07.300Z,0.30
2022-08-17T02:31:35.595Z,0.40
2022-08-17T02:34:04.934Z,0.30
2022-08-17T02:36:35.423Z,0.30
2022-08-17T02:39:08.061Z,0.40
2022-08-17T02:41:35.494Z,0.50
2022-08-17T02:44:02.700Z,0.50
2022-08-17T02:46:31.100Z,0.30
2022-08-17T02:48:58.824Z,0.40
2022-08-17T02:51:26.793Z,0.30
2022-08-17T02:54:39.717Z,0.60
2022-08-17T02:56:40.565Z,0.30
2022-08-17T02:59:07.453Z,0.52
2022-08-17T03:01:34.474Z,0.32
2022-08-17T03:04:01.454Z,0.50
2022-08-17T03:06:29.250Z,0.60
2022-08-17T03:08:56.985Z,0.60
2022-08-17T03:11:23.841Z,0.68
2022-08-17T03:13:51.114Z,0.65
2022-08-17T03:16:18.106Z,0.60
2022-08-17T03:18:44.927Z,1.13
2022-08-17T03:21:12.347Z,0.40
2022-08-17T03:23:41.211Z,0.50
2022-08-17T03:26:12.396Z,0.40
2022-08-17T03:28:42.442Z,0.40
2022-08-17T03:31:09.399Z,0.30
2022-08-17T03:33:36.229Z,0.40
2022-08-17T03:36:03.467Z,0.30
2022-08-17T03:38:30.433Z,0.40
2022-08-17T03:41:06.629Z,0.50
2022-08-17T03:43:34.687Z,0.30
2022-08-17T03:46:28.310Z,0.68
2022-08-17T03:49:24.260Z,0.70
2022-08-17T03:52:09.788Z,0.30
2022-08-17T03:54:55.660Z,0.40
2022-08-17T03:57:22.682Z,0.30
2022-08-17T03:59:50.728Z,0.50
2022-08-17T04:02:27.703Z,1.10
2022-08-17T04:04:54.660Z,0.30
2022-08-17T04:07:24.010Z,0.50
2022-08-17T04:09:52.530Z,0.40
2022-08-17T04:12:21.909Z,0.70
2022-08-17T04:14:52.792Z,0.70
2022-08-17T04:17:25.987Z,0.30
2022-08-17T04:19:55.505Z,0.30
2022-08-17T04:22:31.454Z,0.50
2022-08-17T04:25:15.826Z,0.57
2022-08-17T04:27:42.825Z,0.50
2022-08-17T04:30:10.462Z,0.88
2022-08-17T04:33:07.259Z,0.40
2022-08-17T04:35:41.261Z,0.55
2022-08-17T04:38:10.151Z,0.30
2022-08-17T04:40:56.341Z,0.40
2022-08-17T04:43:24.961Z,0.40
2022-08-17T04:46:06.711Z,0.40
2022-08-17T04:48:46.029Z,0.60
2022-08-17T04:51:33.042Z,0.62
2022-08-17T04:54:09.896Z,0.52
2022-08-17T04:56:37.254Z,0.50
2022-08-17T04:59:09.023Z,0.40
2022-08-17T05:01:38.108Z,0.50
2022-08-17T05:04:33.187Z,1.05
2022-08-17T05:06:57.576Z,0.50
2022-08-17T05:09:24.529Z,0.52
2022-08-17T05:11:51.405Z,0.63
2022-08-17T05:14:18.256Z,0.40
2022-08-17T05:16:48.246Z,0.43
2022-08-17T05:19:15.066Z,0.50
2022-08-17T05:21:41.945Z,0.60
2022-08-17T05:24:38.599Z,0.70
2022-08-17T05:27:06.286Z,0.62
2022-08-17T05:29:35.443Z,0.45
2022-08-17T05:32:39.054Z,0.40
2022-08-17T05:35:00.782Z,0.68
2022-08-17T05:37:27.773Z,0.50
2022-08-17T05:39:58.014Z,0.57
2022-08-17T05:42:24.863Z,0.50
2022-08-17T05:44:51.831Z,0.30
2022-08-17T05:47:18.702Z,0.70
2022-08-17T05:49:49.052Z,0.40
2022-08-17T05:52:22.512Z,0.60
2022-08-17T05:54:49.234Z,0.73
2022-08-17T05:57:42.370Z,0.62
2022-08-17T06:00:29.997Z,0.80
2022-08-17T06:03:27.921Z,0.77
2022-08-17T06:06:02.662Z,0.60
2022-08-17T06:08:55.823Z,0.50
2022-08-17T06:11:31.389Z,0.47
2022-08-17T06:14:22.253Z,0.75
2022-08-17T06:16:53.893Z,0.93
2022-08-17T06:19:38.852Z,0.50
2022-08-17T06:22:06.590Z,0.80
2022-08-17T06:24:44.087Z,1.10
2022-08-17T06:27:21.826Z,0.65
2022-08-17T06:30:09.275Z,1.12
2022-08-17T06:32:45.331Z,0.95
2022-08-17T06:35:15.575Z,1.23
2022-08-17T06:37:48.947Z,1.00
2022-08-17T06:40:45.637Z,0.90
2022-08-17T06:43:34.064Z,0.70
2022-08-17T06:46:15.217Z,0.77
2022-08-17T06:49:07.429Z,0.90
2022-08-17T06:51:46.254Z,0.60
2022-08-17T06:54:39.388Z,0.90
2022-08-17T06:57:14.507Z,0.60
2022-08-17T06:59:57.130Z,0.98
2022-08-17T07:02:53.132Z,0.80
2022-08-17T07:05:23.899Z,0.90
2022-08-17T07:08:07.790Z,0.90
2022-08-17T07:10:48.489Z,1.00
2022-08-17T07:13:31.757Z,1.27
2022-08-17T07:16:11.132Z,1.30
2022-08-17T07:18:38.257Z,1.10
2022-08-17T07:21:17.338Z,1.30
2022-08-17T07:24:02.313Z,1.17
2022-08-17T07:26:29.699Z,1.13
2022-08-17T07:28:56.720Z,1.33
2022-08-17T07:31:25.331Z,1.30
2022-08-17T07:34:14.509Z,1.27
2022-08-17T07:36:42.565Z,1.35
2022-08-17T07:39:10.804Z,1.42
2022-08-17T07:41:57.852Z,1.50
2022-08-17T07:44:27.124Z,1.30
2022-08-17T07:47:32.720Z,1.40
2022-08-17T07:50:25.955Z,1.65
2022-08-17T07:52:54.144Z,1.47
2022-08-17T07:55:40.533Z,1.17
2022-08-17T07:58:07.918Z,1.73
2022-08-17T08:00:35.047Z,1.40
2022-08-17T08:03:13.290Z,1.50
2022-08-17T08:06:02.054Z,1.40
2022-08-17T08:08:31.855Z,1.40
2022-08-17T08:11:15.406Z,1.30
2022-08-17T08:13:45.676Z,1.17
2022-08-17T08:16:29.391Z,1.67
2022-08-17T08:19:01.253Z,1.37
2022-08-17T08:21:49.483Z,1.40
2022-08-17T08:25:28.730Z,1.42
2022-08-17T08:28:07.887Z,1.33
2022-08-17T08:30:37.611Z,1.20
2022-08-17T08:33:17.253Z,1.42
2022-08-17T08:35:54.616Z,1.27
2022-08-17T08:38:30.926Z,1.02
2022-08-17T08:41:06.154Z,1.48
2022-08-17T08:43:53.200Z,1.80
2022-08-17T08:46:22.813Z,2.20
2022-08-17T08:49:58.945Z,1.52
2022-08-17T08:52:30.921Z,1.30
2022-08-17T08:55:07.556Z,1.30
2022-08-17T08:57:40.269Z,1.55
2022-08-17T09:00:16.839Z,1.65
2022-08-17T09:02:58.746Z,1.70
2022-08-17T09:05:48.371Z,1.77
2022-08-17T09:08:24.533Z,2.03
2022-08-17T09:11:06.077Z,1.50
2022-08-17T09:13:32.857Z,1.73
2022-08-17T09:16:23.211Z,1.90
2022-08-17T09:19:03.367Z,1.20
2022-08-17T09:21:48.015Z,1.95
2022-08-17T09:24:57.075Z,1.80
2022-08-17T09:27:38.436Z,1.40
2022-08-17T09:30:09.954Z,2.10
2022-08-17T09:32:41.935Z,1.77
2022-08-17T09:35:15.905Z,1.30
2022-08-17T09:38:01.271Z,1.60
2022-08-17T09:40:57.041Z,1.58
2022-08-17T09:43:56.838Z,2.20
2022-08-17T09:47:19.434Z,1.90
2022-08-17T09:49:53.309Z,2.00
2022-08-17T09:52:28.874Z,1.65
2022-08-17T09:54:57.465Z,1.80
2022-08-17T09:57:31.371Z,1.70
2022-08-17T10:00:13.678Z,1.70
2022-08-17T10:02:54.407Z,1.25
2022-08-17T10:05:33.239Z,1.77
2022-08-17T10:08:02.695Z,1.50
2022-08-17T10:11:33.340Z,2.03
2022-08-17T10:14:37.860Z,1.67
2022-08-17T10:17:08.465Z,2.20
2022-08-17T10:19:39.472Z,2.30
2022-08-17T10:22:58.456Z,1.98
2022-08-17T10:26:00.041Z,1.83
2022-08-17T10:28:30.626Z,2.00
2022-08-17T10:33:53.398Z,2.00
2022-08-17T10:36:34.469Z,1.90
2022-08-17T10:39:20.446Z,1.50
2022-08-17T10:41:51.305Z,1.75
2022-08-17T10:45:04.748Z,1.60
2022-08-17T10:48:06.718Z,2.00
2022-08-17T10:50:55.937Z,1.90
2022-08-17T10:53:31.819Z,1.95
2022-08-17T10:56:14.106Z,2.10
2022-08-17T10:59:07.412Z,1.95
2022-08-17T11:01:34.244Z,2.00
2022-08-17T11:04:03.963Z,1.60
2022-08-17T11:07:06.228Z,1.67
2022-08-17T11:10:00.215Z,1.87
2022-08-17T11:12:38.617Z,2.28
2022-08-17T11:15:22.423Z,1.65
2022-08-17T11:18:02.556Z,1.85
2022-08-17T11:20:54.752Z,1.70
2022-08-17T11:23:45.725Z,1.92
2022-08-17T11:26:34.811Z,1.90
2022-08-17T11:29:09.598Z,1.98
2022-08-17T11:31:43.537Z,2.00
2022-08-17T11:34:21.667Z,2.00
2022-08-17T11:37:14.756Z,2.08
2022-08-17T11:40:06.101Z,1.73
2022-08-17T11:42:37.508Z,1.75
2022-08-17T11:45:32.285Z,2.08
2022-08-17T11:48:29.352Z,2.10
2022-08-17T11:51:24.304Z,1.58
2022-08-17T11:53:59.877Z,2.20
2022-08-17T11:56:49.454Z,2.17
2022-08-17T11:59:39.496Z,2.10
2022-08-17T12:02:35.333Z,1.67
2022-08-17T12:05:12.306Z,1.98
2022-08-17T12:07:49.528Z,2.05
2022-08-17T12:10:21.493Z,2.28
2022-08-17T12:12:50.474Z,1.80
2022-08-17T12:15:19.829Z,1.50
2022-08-17T12:17:54.201Z,1.80
2022-08-17T12:20:33.370Z,1.77
2022-08-17T12:23:15.082Z,1.73
2022-08-17T12:25:55.445Z,2.17
2022-08-17T12:28:26.842Z,1.90
2022-08-17T12:30:54.405Z,2.47
2022-08-17T12:33:25.203Z,2.00
2022-08-17T12:36:03.071Z,2.17
2022-08-17T12:38:34.435Z,1.40
2022-08-17T12:41:23.578Z,1.75
2022-08-17T12:44:13.365Z,2.05
2022-08-17T12:46:50.725Z,2.03
2022-08-17T12:49:35.604Z,1.83
2022-08-17T12:52:20.468Z,1.90
2022-08-17T12:54:59.635Z,2.10
2022-08-17T12:57:32.805Z,1.87
2022-08-17T13:00:27.105Z,1.95
2022-08-17T13:03:34.293Z,2.08
2022-08-17T13:06:09.506Z,2.40
2022-08-17T13:08:41.213Z,1.60
2022-08-17T13:11:20.229Z,1.90
2022-08-17T13:13:54.271Z,2.00
2022-08-17T13:16:26.757Z,1.60
2022-08-17T13:19:05.059Z,2.30
2022-08-17T13:21:33.272Z,2.05
2022-08-17T13:24:07.988Z,2.15
2022-08-17T13:26:42.647Z,2.17
2022-08-17T13:29:29.063Z,1.80
2022-08-17T13:32:16.761Z,2.08
2022-08-17T13:35:13.475Z,2.12
2022-08-17T13:37:40.724Z,2.30
2022-08-17T13:40:09.936Z,1.80
2022-08-17T13:42:52.086Z,2.00
2022-08-17T13:45:36.767Z,2.03
2022-08-17T13:48:27.426Z,2.10
2022-08-17T13:50:57.329Z,2.10
2022-08-17T13:53:34.273Z,1.65
2022-08-17T13:56:38.329Z,1.83
2022-08-17T13:59:15.691Z,1.95
2022-08-17T14:01:49.684Z,2.20
2022-08-17T14:04:27.822Z,1.58
2022-08-17T14:07:16.029Z,2.08
2022-08-17T14:09:58.046Z,1.90
2022-08-17T14:12:26.804Z,1.90
2022-08-17T14:14:55.155Z,2.10
2022-08-17T14:17:23.226Z,1.70
2022-08-17T14:19:51.152Z,2.00
2022-08-17T14:22:33.112Z,1.97
2022-08-17T14:25:01.723Z,2.60
2022-08-17T14:27:31.866Z,1.98
2022-08-17T14:30:00.383Z,1.87
2022-08-17T14:32:30.295Z,1.90
2022-08-17T14:34:57.993Z,1.95
2022-08-17T14:37:27.978Z,1.95
2022-08-17T14:39:56.397Z,1.87
2022-08-17T14:42:24.967Z,2.03
2022-08-17T14:44:55.584Z,1.77
2022-08-17T14:47:22.813Z,1.90
2022-08-17T14:49:51.277Z,1.90
2022-08-17T14:52:21.795Z,1.85
2022-08-17T14:54:51.373Z,1.90
2022-08-17T14:57:25.808Z,1.65
2022-08-17T15:00:05.282Z,1.95
2022-08-17T15:02:44.042Z,1.80
2022-08-17T15:05:11.008Z,1.67
2022-08-17T15:07:38.016Z,1.83
2022-08-17T15:10:06.218Z,1.73
2022-08-17T15:12:34.745Z,1.93
2022-08-17T15:15:04.813Z,1.62
2022-08-17T15:17:43.679Z,1.73
2022-08-17T15:20:17.652Z,1.45
2022-08-17T15:22:45.624Z,1.65
2022-08-17T15:25:13.518Z,1.50
2022-08-17T15:27:40.660Z,1.70
2022-08-17T15:30:09.872Z,1.70
2022-08-17T15:32:40.653Z,1.67
2022-08-17T15:35:11.787Z,1.70
2022-08-17T15:37:40.260Z,1.57
2022-08-17T15:40:10.482Z,1.87
2022-08-17T15:42:38.546Z,1.90
2022-08-17T15:45:12.310Z,1.30
2022-08-17T15:47:40.376Z,1.60
2022-08-17T15:50:10.717Z,1.80
2022-08-17T15:52:40.391Z,1.55
2022-08-17T15:55:11.523Z,1.37
2022-08-17T15:57:38.756Z,1.30
2022-08-17T16:00:08.745Z,1.30
2022-08-17T16:03:45.965Z,1.70
2022-08-17T16:05:25.185Z,1.60
2022-08-17T16:07:53.608Z,1.40
2022-08-17T16:10:21.132Z,1.50
2022-08-17T16:12:49.279Z,1.58
2022-08-17T16:15:17.254Z,1.75
2022-08-17T16:17:44.160Z,1.20
2022-08-17T16:20:19.571Z,1.87
2022-08-17T16:22:46.845Z,1.80
2022-08-17T16:25:20.016Z,1.83
2022-08-17T16:27:49.339Z,1.90
2022-08-17T16:30:17.614Z,1.62
2022-08-17T16:32:45.660Z,1.52
2022-08-17T16:35:16.200Z,1.30
2022-08-17T16:37:44.635Z,1.37
2022-08-17T16:40:14.745Z,1.55
2022-08-17T16:42:43.197Z,1.65
2022-08-17T16:45:16.759Z,1.30
2022-08-17T16:47:43.718Z,1.30
2022-08-17T16:50:14.667Z,1.25
2022-08-17T16:52:42.251Z,1.52
2022-08-17T16:55:10.591Z,1.80
2022-08-17T16:57:47.224Z,1.50
2022-08-17T17:00:19.370Z,1.30
2022-08-17T17:02:48.213Z,1.48
2022-08-17T17:05:42.997Z,1.60
2022-08-17T17:08:19.586Z,2.10
2022-08-17T17:10:49.389Z,1.40
2022-08-17T17:13:37.891Z,1.37
2022-08-17T17:16:26.355Z,1.40
2022-08-17T17:19:34.368Z,1.20
2022-08-17T17:22:22.869Z,1.20
2022-08-17T17:25:08.216Z,1.37
2022-08-17T17:27:47.162Z,1.30
2022-08-17T17:30:16.222Z,1.40
2022-08-17T17:32:52.938Z,1.37
2022-08-17T17:35:31.833Z,1.35
2022-08-17T17:38:04.350Z,1.20
2022-08-17T17:40:40.074Z,1.30
2022-08-17T17:43:36.888Z,1.60
2022-08-17T17:46:09.178Z,1.30
2022-08-17T17:48:55.060Z,1.40
2022-08-17T17:52:11.161Z,1.55
2022-08-17T17:54:54.999Z,1.20
2022-08-17T17:57:58.106Z,1.43
2022-08-17T18:00:26.337Z,1.20
2022-08-17T18:03:31.054Z,1.02
2022-08-17T18:06:40.112Z,1.17
2022-08-17T18:09:39.125Z,1.30
2022-08-17T18:12:22.702Z,1.10
2022-08-17T18:14:58.657Z,1.02
2022-08-17T18:17:25.553Z,1.35
2022-08-17T18:19:55.501Z,1.10
2022-08-17T18:22:23.280Z,1.10
2022-08-17T18:24:56.471Z,1.13
2022-08-17T18:27:32.010Z,1.08
2022-08-17T18:30:15.178Z,1.08
2022-08-17T18:32:46.429Z,0.90
2022-08-17T18:35:16.066Z,1.10
2022-08-17T18:37:48.501Z,1.10
2022-08-17T18:40:19.525Z,1.12
2022-08-17T18:43:00.333Z,1.00
2022-08-17T18:45:51.189Z,1.10
2022-08-17T18:48:32.882Z,0.88
2022-08-17T18:51:39.782Z,0.93
2022-08-17T18:54:09.393Z,0.85
2022-08-17T18:56:57.418Z,1.25
2022-08-17T18:59:48.312Z,0.73
2022-08-17T19:02:27.233Z,0.70
2022-08-17T19:05:34.939Z,1.00
2022-08-17T19:08:24.751Z,1.30
2022-08-17T19:10:54.680Z,0.97
2022-08-17T19:13:44.690Z,0.80
2022-08-17T19:16:18.083Z,1.08
2022-08-17T19:18:49.052Z,1.00
2022-08-17T19:21:23.496Z,1.07
2022-08-17T19:24:11.741Z,1.17
2022-08-17T19:26:54.245Z,1.02
2022-08-17T19:29:40.651Z,0.97
2022-08-17T19:32:08.438Z,0.80
2022-08-17T19:34:36.869Z,0.90
2022-08-17T19:37:38.865Z,0.68
2022-08-17T19:40:09.083Z,0.70
2022-08-17T19:43:11.474Z,0.83
2022-08-17T19:45:49.164Z,0.60
2022-08-17T19:48:37.898Z,0.60
2022-08-17T19:51:13.110Z,0.52
2022-08-17T19:54:05.395Z,0.80
2022-08-17T19:56:40.590Z,0.80
2022-08-17T19:59:36.900Z,0.70
2022-08-17T20:02:24.055Z,0.57
2022-08-17T20:04:51.185Z,0.50
2022-08-17T20:07:31.491Z,0.50
2022-08-17T20:10:06.580Z,0.63
2022-08-17T20:12:36.322Z,1.10
2022-08-17T20:15:13.840Z,0.82
2022-08-17T20:17:43.819Z,0.77
2022-08-17T20:20:50.206Z,0.60
2022-08-17T20:23:49.400Z,0.70
2022-08-17T20:26:47.883Z,0.65
2022-08-17T20:30:06.660Z,0.52
2022-08-17T20:32:55.466Z,0.60
2022-08-17T20:35:37.935Z,0.70
2022-08-17T20:38:06.703Z,0.50
2022-08-17T20:40:36.324Z,1.27
2022-08-17T20:43:44.319Z,0.90
2022-08-17T20:46:26.875Z,0.52
2022-08-17T20:48:57.552Z,0.60
2022-08-17T20:51:27.358Z,0.70
2022-08-17T20:53:54.078Z,0.60
2022-08-17T20:56:47.446Z,0.75
2022-08-17T20:59:27.564Z,0.75
2022-08-17T21:02:21.269Z,0.73
2022-08-17T21:04:51.338Z,0.82
2022-08-17T21:07:42.920Z,0.47
2022-08-17T21:10:37.570Z,0.80
2022-08-17T21:13:22.974Z,1.20
2022-08-17T21:15:59.021Z,0.60
2022-08-17T21:18:28.821Z,0.60
2022-08-17T21:21:04.693Z,0.60
2022-08-17T21:24:08.943Z,0.50
2022-08-17T21:26:55.418Z,0.50
2022-08-17T21:29:32.592Z,0.57
2022-08-17T21:32:03.604Z,0.50
2022-08-17T21:35:07.151Z,0.60
2022-08-17T21:37:48.294Z,0.50
2022-08-17T21:40:19.003Z,0.70
2022-08-17T21:42:49.058Z,0.47
2022-08-17T21:45:35.568Z,0.40
2022-08-17T21:48:20.304Z,0.52
2022-08-17T21:50:58.462Z,0.97
2022-08-17T21:53:33.009Z,0.82
2022-08-17T21:56:00.232Z,0.60
2022-08-17T21:58:32.840Z,0.62
2022-08-17T22:01:31.702Z,0.60
2022-08-17T22:04:11.533Z,0.60
2022-08-17T22:06:56.691Z,0.85
2022-08-17T22:09:42.236Z,0.75
2022-08-17T22:12:17.267Z,0.80
2022-08-17T22:14:52.648Z,0.50
2022-08-17T22:17:46.133Z,0.50
2022-08-17T22:20:18.923Z,1.62
2022-08-17T22:23:04.419Z,0.73
2022-08-17T22:25:34.112Z,0.70
2022-08-17T22:28:03.202Z,0.98
2022-08-17T22:30:32.134Z,0.60
2022-08-17T22:33:00.309Z,0.40
2022-08-17T22:35:41.672Z,0.35
2022-08-17T22:38:20.791Z,0.82
2022-08-17T22:40:49.992Z,0.80
2022-08-17T22:43:21.262Z,0.50
2022-08-17T22:45:55.587Z,0.50
2022-08-17T22:48:27.537Z,0.55
2022-08-17T22:51:14.665Z,0.57
2022-08-17T22:54:12.341Z,0.35
2022-08-17T22:57:12.503Z,0.50
2022-08-17T22:59:44.980Z,0.50
2022-08-17T23:02:33.096Z,0.50
2022-08-17T23:05:13.014Z,0.90
2022-08-17T23:07:40.749Z,0.60
2022-08-17T23:10:11.169Z,0.60
2022-08-17T23:12:40.676Z,0.50
2022-08-17T23:15:19.016Z,1.05
2022-08-17T23:17:46.079Z,0.40
2022-08-17T23:20:15.084Z,0.62
2022-08-17T23:22:51.443Z,0.68
2022-08-17T23:25:31.563Z,1.05
2022-08-17T23:28:01.532Z,0.50
2022-08-17T23:30:31.169Z,0.57
2022-08-17T23:33:01.123Z,0.40
2022-08-17T23:35:40.613Z,0.55
2022-08-17T23:38:10.017Z,0.60
2022-08-17T23:40:37.843Z,0.47
2022-08-17T23:43:23.521Z,0.45
2022-08-17T23:45:56.187Z,0.55
2022-08-17T23:48:32.483Z,0.67
2022-08-17T23:51:05.945Z,0.70
2022-08-17T23:53:34.782Z,0.40
2022-08-17T23:56:09.543Z,0.50
2022-08-17T23:58:42.415Z,0.77
